sensor_id;sensor_type;location;lat;lon;timestamp;P1;durP1;ratioP1;P2;durP2;ratioP2
30127;SDS011;16942;53.196;6.592;2023-04-06T00:01:00;10.67;;;6.40;;
30127;SDS011;16942;53.196;6.592;2023-04-06T00:03:27;10.87;;;6.70;;
30127;SDS011;16942;53.196;6.592;2023-04-06T00:05:53;9.30;;;6.00;;
30127;SDS011;16942;53.196;6.592;2023-04-06T00:08:19;9.00;;;6.10;;
30127;SDS011;16942;53.196;6.592;2023-04-06T00:10:46;10.47;;;6.87;;
30127;SDS011;16942;53.196;6.592;2023-04-06T00:13:12;11.03;;;6.57;;
30127;SDS011;16942;53.196;6.592;2023-04-06T00:15:38;10.33;;;6.47;;
30127;SDS011;16942;53.196;6.592;2023-04-06T00:18:05;11.60;;;6.43;;
30127;SDS011;16942;53.196;6.592;2023-04-06T00:20:31;13.90;;;7.13;;
30127;SDS011;16942;53.196;6.592;2023-04-06T00:22:57;9.40;;;6.83;;
30127;SDS011;16942;53.196;6.592;2023-04-06T00:25:23;11.93;;;6.97;;
30127;SDS011;16942;53.196;6.592;2023-04-06T00:27:49;12.13;;;6.97;;
30127;SDS011;16942;53.196;6.592;2023-04-06T00:30:15;11.33;;;6.90;;
30127;SDS011;16942;53.196;6.592;2023-04-06T00:32:41;11.67;;;7.20;;
30127;SDS011;16942;53.196;6.592;2023-04-06T00:35:07;12.00;;;6.97;;
30127;SDS011;16942;53.196;6.592;2023-04-06T00:37:33;11.40;;;7.17;;
30127;SDS011;16942;53.196;6.592;2023-04-06T00:40:00;12.03;;;7.07;;
30127;SDS011;16942;53.196;6.592;2023-04-06T00:42:26;10.50;;;7.23;;
30127;SDS011;16942;53.196;6.592;2023-04-06T00:44:56;10.63;;;7.17;;
30127;SDS011;16942;53.196;6.592;2023-04-06T00:47:22;10.57;;;7.00;;
30127;SDS011;16942;53.196;6.592;2023-04-06T00:49:49;10.97;;;7.10;;
30127;SDS011;16942;53.196;6.592;2023-04-06T00:52:16;14.03;;;7.17;;
30127;SDS011;16942;53.196;6.592;2023-04-06T00:54:42;13.03;;;8.03;;
30127;SDS011;16942;53.196;6.592;2023-04-06T00:57:08;14.60;;;7.60;;
30127;SDS011;16942;53.196;6.592;2023-04-06T00:59:34;10.47;;;6.80;;
30127;SDS011;16942;53.196;6.592;2023-04-06T01:02:00;11.90;;;7.40;;
30127;SDS011;16942;53.196;6.592;2023-04-06T01:04:26;11.20;;;7.37;;
30127;SDS011;16942;53.196;6.592;2023-04-06T01:06:53;13.23;;;7.37;;
30127;SDS011;16942;53.196;6.592;2023-04-06T01:09:19;16.87;;;8.23;;
30127;SDS011;16942;53.196;6.592;2023-04-06T01:11:45;15.90;;;7.43;;
30127;SDS011;16942;53.196;6.592;2023-04-06T01:14:11;12.37;;;7.90;;
30127;SDS011;16942;53.196;6.592;2023-04-06T01:16:37;13.80;;;7.73;;
30127;SDS011;16942;53.196;6.592;2023-04-06T01:19:07;11.93;;;7.23;;
30127;SDS011;16942;53.196;6.592;2023-04-06T01:21:34;12.73;;;7.87;;
30127;SDS011;16942;53.196;6.592;2023-04-06T01:24:00;13.00;;;7.60;;
30127;SDS011;16942;53.196;6.592;2023-04-06T01:26:26;11.00;;;7.53;;
30127;SDS011;16942;53.196;6.592;2023-04-06T01:28:54;12.17;;;8.00;;
30127;SDS011;16942;53.196;6.592;2023-04-06T01:31:20;11.57;;;7.20;;
30127;SDS011;16942;53.196;6.592;2023-04-06T01:33:46;14.20;;;8.50;;
30127;SDS011;16942;53.196;6.592;2023-04-06T01:36:12;12.63;;;7.80;;
30127;SDS011;16942;53.196;6.592;2023-04-06T01:38:38;14.27;;;7.80;;
30127;SDS011;16942;53.196;6.592;2023-04-06T01:41:04;14.33;;;8.30;;
30127;SDS011;16942;53.196;6.592;2023-04-06T01:43:30;13.40;;;8.80;;
30127;SDS011;16942;53.196;6.592;2023-04-06T01:45:56;15.00;;;7.93;;
30127;SDS011;16942;53.196;6.592;2023-04-06T01:48:23;12.73;;;8.43;;
30127;SDS011;16942;53.196;6.592;2023-04-06T01:50:49;12.83;;;7.93;;
30127;SDS011;16942;53.196;6.592;2023-04-06T01:53:15;13.70;;;8.43;;
30127;SDS011;16942;53.196;6.592;2023-04-06T01:55:41;14.73;;;8.43;;
30127;SDS011;16942;53.196;6.592;2023-04-06T01:58:07;13.27;;;8.37;;
30127;SDS011;16942;53.196;6.592;2023-04-06T02:00:33;12.43;;;8.37;;
30127;SDS011;16942;53.196;6.592;2023-04-06T02:02:59;12.17;;;8.53;;
30127;SDS011;16942;53.196;6.592;2023-04-06T02:05:25;15.17;;;8.43;;
30127;SDS011;16942;53.196;6.592;2023-04-06T02:07:51;13.87;;;8.07;;
30127;SDS011;16942;53.196;6.592;2023-04-06T02:10:18;15.70;;;8.23;;
30127;SDS011;16942;53.196;6.592;2023-04-06T02:12:44;17.20;;;8.63;;
30127;SDS011;16942;53.196;6.592;2023-04-06T02:15:10;13.90;;;8.73;;
30127;SDS011;16942;53.196;6.592;2023-04-06T02:17:38;14.10;;;9.00;;
30127;SDS011;16942;53.196;6.592;2023-04-06T02:20:04;11.80;;;8.20;;
30127;SDS011;16942;53.196;6.592;2023-04-06T02:22:30;15.27;;;8.90;;
30127;SDS011;16942;53.196;6.592;2023-04-06T02:24:56;17.07;;;8.90;;
30127;SDS011;16942;53.196;6.592;2023-04-06T02:27:22;17.27;;;8.60;;
30127;SDS011;16942;53.196;6.592;2023-04-06T02:29:48;16.40;;;9.60;;
30127;SDS011;16942;53.196;6.592;2023-04-06T02:32:15;14.43;;;8.63;;
30127;SDS011;16942;53.196;6.592;2023-04-06T02:34:41;14.67;;;9.10;;
30127;SDS011;16942;53.196;6.592;2023-04-06T02:37:07;21.27;;;9.30;;
30127;SDS011;16942;53.196;6.592;2023-04-06T02:39:33;12.67;;;8.73;;
30127;SDS011;16942;53.196;6.592;2023-04-06T02:41:59;14.50;;;9.00;;
30127;SDS011;16942;53.196;6.592;2023-04-06T02:44:25;15.43;;;8.83;;
30127;SDS011;16942;53.196;6.592;2023-04-06T02:46:51;15.07;;;9.20;;
30127;SDS011;16942;53.196;6.592;2023-04-06T02:49:17;14.23;;;8.90;;
30127;SDS011;16942;53.196;6.592;2023-04-06T02:51:43;16.53;;;9.77;;
30127;SDS011;16942;53.196;6.592;2023-04-06T02:54:09;17.03;;;8.80;;
30127;SDS011;16942;53.196;6.592;2023-04-06T02:56:35;15.23;;;8.97;;
30127;SDS011;16942;53.196;6.592;2023-04-06T02:59:02;17.00;;;9.57;;
30127;SDS011;16942;53.196;6.592;2023-04-06T03:01:28;15.47;;;8.77;;
30127;SDS011;16942;53.196;6.592;2023-04-06T03:03:54;14.90;;;9.03;;
30127;SDS011;16942;53.196;6.592;2023-04-06T03:06:20;15.67;;;8.67;;
30127;SDS011;16942;53.196;6.592;2023-04-06T03:08:46;15.60;;;9.23;;
30127;SDS011;16942;53.196;6.592;2023-04-06T03:11:12;13.93;;;8.30;;
30127;SDS011;16942;53.196;6.592;2023-04-06T03:13:38;23.93;;;8.40;;
30127;SDS011;16942;53.196;6.592;2023-04-06T03:16:04;13.47;;;8.63;;
30127;SDS011;16942;53.196;6.592;2023-04-06T03:18:31;14.50;;;8.57;;
30127;SDS011;16942;53.196;6.592;2023-04-06T03:20:57;19.10;;;8.97;;
30127;SDS011;16942;53.196;6.592;2023-04-06T03:23:25;14.20;;;8.47;;
30127;SDS011;16942;53.196;6.592;2023-04-06T03:25:51;18.40;;;9.33;;
30127;SDS011;16942;53.196;6.592;2023-04-06T03:28:17;15.23;;;9.00;;
30127;SDS011;16942;53.196;6.592;2023-04-06T03:30:44;14.20;;;8.80;;
30127;SDS011;16942;53.196;6.592;2023-04-06T03:33:10;15.60;;;9.33;;
30127;SDS011;16942;53.196;6.592;2023-04-06T03:35:36;16.17;;;8.97;;
30127;SDS011;16942;53.196;6.592;2023-04-06T03:38:03;15.43;;;9.33;;
30127;SDS011;16942;53.196;6.592;2023-04-06T03:40:30;13.60;;;8.50;;
30127;SDS011;16942;53.196;6.592;2023-04-06T03:42:56;15.20;;;9.13;;
30127;SDS011;16942;53.196;6.592;2023-04-06T03:45:22;17.03;;;9.67;;
30127;SDS011;16942;53.196;6.592;2023-04-06T03:47:48;14.83;;;9.07;;
30127;SDS011;16942;53.196;6.592;2023-04-06T03:50:14;12.33;;;8.23;;
30127;SDS011;16942;53.196;6.592;2023-04-06T03:52:40;18.13;;;9.10;;
30127;SDS011;16942;53.196;6.592;2023-04-06T03:55:06;15.50;;;8.70;;
30127;SDS011;16942;53.196;6.592;2023-04-06T03:57:33;13.00;;;8.07;;
30127;SDS011;16942;53.196;6.592;2023-04-06T03:59:59;15.60;;;9.37;;
30127;SDS011;16942;53.196;6.592;2023-04-06T04:02:25;15.57;;;8.83;;
30127;SDS011;16942;53.196;6.592;2023-04-06T04:04:51;15.20;;;9.50;;
30127;SDS011;16942;53.196;6.592;2023-04-06T04:07:17;17.83;;;9.10;;
30127;SDS011;16942;53.196;6.592;2023-04-06T04:09:43;15.20;;;9.00;;
30127;SDS011;16942;53.196;6.592;2023-04-06T04:12:09;21.70;;;10.17;;
30127;SDS011;16942;53.196;6.592;2023-04-06T04:14:35;15.23;;;8.90;;
30127;SDS011;16942;53.196;6.592;2023-04-06T04:17:01;16.83;;;9.20;;
30127;SDS011;16942;53.196;6.592;2023-04-06T04:19:27;12.40;;;8.83;;
30127;SDS011;16942;53.196;6.592;2023-04-06T04:21:53;17.20;;;9.43;;
30127;SDS011;16942;53.196;6.592;2023-04-06T04:24:19;14.77;;;8.87;;
30127;SDS011;16942;53.196;6.592;2023-04-06T04:26:45;13.90;;;8.07;;
30127;SDS011;16942;53.196;6.592;2023-04-06T04:29:11;15.67;;;9.07;;
30127;SDS011;16942;53.196;6.592;2023-04-06T04:31:37;25.23;;;10.13;;
30127;SDS011;16942;53.196;6.592;2023-04-06T04:34:03;18.53;;;10.30;;
30127;SDS011;16942;53.196;6.592;2023-04-06T04:36:31;15.93;;;8.07;;
30127;SDS011;16942;53.196;6.592;2023-04-06T04:38:57;13.30;;;9.07;;
30127;SDS011;16942;53.196;6.592;2023-04-06T04:41:26;14.43;;;8.43;;
30127;SDS011;16942;53.196;6.592;2023-04-06T04:43:52;26.53;;;9.30;;
30127;SDS011;16942;53.196;6.592;2023-04-06T04:46:18;13.53;;;8.47;;
30127;SDS011;16942;53.196;6.592;2023-04-06T04:48:44;18.30;;;9.10;;
30127;SDS011;16942;53.196;6.592;2023-04-06T04:51:10;13.70;;;8.53;;
30127;SDS011;16942;53.196;6.592;2023-04-06T04:53:36;14.57;;;8.63;;
30127;SDS011;16942;53.196;6.592;2023-04-06T04:56:02;12.43;;;8.37;;
30127;SDS011;16942;53.196;6.592;2023-04-06T04:58:28;10.20;;;7.50;;
30127;SDS011;16942;53.196;6.592;2023-04-06T05:00:55;13.07;;;8.13;;
30127;SDS011;16942;53.196;6.592;2023-04-06T05:03:21;15.87;;;8.87;;
30127;SDS011;16942;53.196;6.592;2023-04-06T05:05:48;13.93;;;8.77;;
30127;SDS011;16942;53.196;6.592;2023-04-06T05:08:15;16.93;;;9.07;;
30127;SDS011;16942;53.196;6.592;2023-04-06T05:10:41;14.87;;;8.90;;
30127;SDS011;16942;53.196;6.592;2023-04-06T05:13:07;15.90;;;8.70;;
30127;SDS011;16942;53.196;6.592;2023-04-06T05:15:33;14.80;;;8.80;;
30127;SDS011;16942;53.196;6.592;2023-04-06T05:18:05;15.30;;;8.90;;
30127;SDS011;16942;53.196;6.592;2023-04-06T05:20:32;15.17;;;8.60;;
30127;SDS011;16942;53.196;6.592;2023-04-06T05:22:58;17.30;;;9.20;;
30127;SDS011;16942;53.196;6.592;2023-04-06T05:25:24;14.67;;;8.40;;
30127;SDS011;16942;53.196;6.592;2023-04-06T05:27:50;14.87;;;8.60;;
30127;SDS011;16942;53.196;6.592;2023-04-06T05:30:16;15.03;;;7.73;;
30127;SDS011;16942;53.196;6.592;2023-04-06T05:32:42;12.13;;;8.30;;
30127;SDS011;16942;53.196;6.592;2023-04-06T05:35:09;14.53;;;8.43;;
30127;SDS011;16942;53.196;6.592;2023-04-06T05:37:35;18.33;;;9.33;;
30127;SDS011;16942;53.196;6.592;2023-04-06T05:40:01;16.67;;;9.80;;
30127;SDS011;16942;53.196;6.592;2023-04-06T05:42:28;15.57;;;8.77;;
30127;SDS011;16942;53.196;6.592;2023-04-06T05:44:55;17.40;;;8.73;;
30127;SDS011;16942;53.196;6.592;2023-04-06T05:47:21;13.07;;;8.30;;
30127;SDS011;16942;53.196;6.592;2023-04-06T05:49:47;12.80;;;8.27;;
30127;SDS011;16942;53.196;6.592;2023-04-06T05:52:13;16.00;;;9.17;;
30127;SDS011;16942;53.196;6.592;2023-04-06T05:54:39;19.07;;;8.70;;
30127;SDS011;16942;53.196;6.592;2023-04-06T05:57:05;17.03;;;8.00;;
30127;SDS011;16942;53.196;6.592;2023-04-06T05:59:31;14.57;;;8.57;;
30127;SDS011;16942;53.196;6.592;2023-04-06T06:01:57;22.47;;;8.93;;
30127;SDS011;16942;53.196;6.592;2023-04-06T06:04:23;15.10;;;7.60;;
30127;SDS011;16942;53.196;6.592;2023-04-06T06:06:49;12.57;;;7.70;;
30127;SDS011;16942;53.196;6.592;2023-04-06T06:09:15;15.27;;;8.40;;
30127;SDS011;16942;53.196;6.592;2023-04-06T06:11:41;11.47;;;7.87;;
30127;SDS011;16942;53.196;6.592;2023-04-06T06:14:07;14.73;;;8.60;;
30127;SDS011;16942;53.196;6.592;2023-04-06T06:16:33;14.40;;;8.00;;
30127;SDS011;16942;53.196;6.592;2023-04-06T06:19:00;13.23;;;8.10;;
30127;SDS011;16942;53.196;6.592;2023-04-06T06:21:26;12.23;;;7.90;;
30127;SDS011;16942;53.196;6.592;2023-04-06T06:23:52;11.87;;;8.00;;
30127;SDS011;16942;53.196;6.592;2023-04-06T06:26:19;14.63;;;7.17;;
30127;SDS011;16942;53.196;6.592;2023-04-06T06:28:46;12.13;;;7.60;;
30127;SDS011;16942;53.196;6.592;2023-04-06T06:31:12;14.10;;;7.93;;
30127;SDS011;16942;53.196;6.592;2023-04-06T06:33:38;13.67;;;8.40;;
30127;SDS011;16942;53.196;6.592;2023-04-06T06:36:05;10.13;;;7.17;;
30127;SDS011;16942;53.196;6.592;2023-04-06T06:38:31;12.60;;;7.57;;
30127;SDS011;16942;53.196;6.592;2023-04-06T06:40:57;11.83;;;7.60;;
30127;SDS011;16942;53.196;6.592;2023-04-06T06:43:23;10.53;;;7.07;;
30127;SDS011;16942;53.196;6.592;2023-04-06T06:45:49;12.70;;;7.57;;
30127;SDS011;16942;53.196;6.592;2023-04-06T06:48:15;11.40;;;7.57;;
30127;SDS011;16942;53.196;6.592;2023-04-06T06:50:41;12.17;;;8.13;;
30127;SDS011;16942;53.196;6.592;2023-04-06T06:53:07;12.63;;;8.10;;
30127;SDS011;16942;53.196;6.592;2023-04-06T06:55:33;11.00;;;7.90;;
30127;SDS011;16942;53.196;6.592;2023-04-06T06:57:59;11.70;;;7.57;;
30127;SDS011;16942;53.196;6.592;2023-04-06T07:00:25;15.23;;;8.53;;
30127;SDS011;16942;53.196;6.592;2023-04-06T07:02:51;12.90;;;8.07;;
30127;SDS011;16942;53.196;6.592;2023-04-06T07:05:17;13.70;;;8.37;;
30127;SDS011;16942;53.196;6.592;2023-04-06T07:07:43;12.70;;;8.00;;
30127;SDS011;16942;53.196;6.592;2023-04-06T07:10:10;12.77;;;8.33;;
30127;SDS011;16942;53.196;6.592;2023-04-06T07:12:36;18.23;;;8.23;;
30127;SDS011;16942;53.196;6.592;2023-04-06T07:15:02;16.30;;;8.83;;
30127;SDS011;16942;53.196;6.592;2023-04-06T07:17:28;14.40;;;8.77;;
30127;SDS011;16942;53.196;6.592;2023-04-06T07:19:54;13.03;;;8.43;;
30127;SDS011;16942;53.196;6.592;2023-04-06T07:22:20;14.30;;;8.23;;
30127;SDS011;16942;53.196;6.592;2023-04-06T07:24:46;13.13;;;8.10;;
30127;SDS011;16942;53.196;6.592;2023-04-06T07:27:12;12.37;;;8.50;;
30127;SDS011;16942;53.196;6.592;2023-04-06T07:29:38;12.27;;;8.13;;
30127;SDS011;16942;53.196;6.592;2023-04-06T07:32:04;12.97;;;9.17;;
30127;SDS011;16942;53.196;6.592;2023-04-06T07:34:30;14.07;;;8.13;;
30127;SDS011;16942;53.196;6.592;2023-04-06T07:36:56;13.87;;;8.60;;
30127;SDS011;16942;53.196;6.592;2023-04-06T07:39:22;13.60;;;9.03;;
30127;SDS011;16942;53.196;6.592;2023-04-06T07:41:48;14.77;;;8.53;;
30127;SDS011;16942;53.196;6.592;2023-04-06T07:44:14;12.43;;;8.50;;
30127;SDS011;16942;53.196;6.592;2023-04-06T07:46:41;18.20;;;9.10;;
30127;SDS011;16942;53.196;6.592;2023-04-06T07:49:07;13.73;;;8.83;;
30127;SDS011;16942;53.196;6.592;2023-04-06T07:51:35;16.50;;;9.00;;
30127;SDS011;16942;53.196;6.592;2023-04-06T07:54:01;14.00;;;9.07;;
30127;SDS011;16942;53.196;6.592;2023-04-06T07:56:27;16.60;;;8.77;;
30127;SDS011;16942;53.196;6.592;2023-04-06T07:58:53;14.90;;;9.33;;
30127;SDS011;16942;53.196;6.592;2023-04-06T08:01:23;15.37;;;9.43;;
30127;SDS011;16942;53.196;6.592;2023-04-06T08:03:49;15.13;;;9.17;;
30127;SDS011;16942;53.196;6.592;2023-04-06T08:06:15;14.33;;;8.90;;
30127;SDS011;16942;53.196;6.592;2023-04-06T08:08:41;14.50;;;8.43;;
30127;SDS011;16942;53.196;6.592;2023-04-06T08:11:08;14.77;;;9.13;;
30127;SDS011;16942;53.196;6.592;2023-04-06T08:13:34;14.47;;;8.83;;
30127;SDS011;16942;53.196;6.592;2023-04-06T08:16:00;14.33;;;9.50;;
30127;SDS011;16942;53.196;6.592;2023-04-06T08:18:27;16.10;;;7.70;;
30127;SDS011;16942;53.196;6.592;2023-04-06T08:20:54;13.53;;;8.70;;
30127;SDS011;16942;53.196;6.592;2023-04-06T08:23:21;12.13;;;8.07;;
30127;SDS011;16942;53.196;6.592;2023-04-06T08:25:47;13.87;;;8.77;;
30127;SDS011;16942;53.196;6.592;2023-04-06T08:28:13;16.70;;;9.43;;
30127;SDS011;16942;53.196;6.592;2023-04-06T08:30:42;13.07;;;8.90;;
30127;SDS011;16942;53.196;6.592;2023-04-06T08:33:08;15.80;;;9.13;;
30127;SDS011;16942;53.196;6.592;2023-04-06T08:35:35;10.27;;;7.80;;
30127;SDS011;16942;53.196;6.592;2023-04-06T08:38:01;14.37;;;8.37;;
30127;SDS011;16942;53.196;6.592;2023-04-06T08:40:27;14.73;;;8.73;;
30127;SDS011;16942;53.196;6.592;2023-04-06T08:42:56;12.90;;;8.50;;
30127;SDS011;16942;53.196;6.592;2023-04-06T08:45:27;14.33;;;8.23;;
30127;SDS011;16942;53.196;6.592;2023-04-06T08:47:53;13.43;;;8.97;;
30127;SDS011;16942;53.196;6.592;2023-04-06T08:50:20;13.60;;;8.53;;
30127;SDS011;16942;53.196;6.592;2023-04-06T08:52:47;14.40;;;8.80;;
30127;SDS011;16942;53.196;6.592;2023-04-06T08:55:13;15.00;;;8.73;;
30127;SDS011;16942;53.196;6.592;2023-04-06T08:57:39;14.07;;;8.50;;
30127;SDS011;16942;53.196;6.592;2023-04-06T09:00:06;12.97;;;9.13;;
30127;SDS011;16942;53.196;6.592;2023-04-06T09:02:33;16.10;;;8.53;;
30127;SDS011;16942;53.196;6.592;2023-04-06T09:04:59;12.17;;;8.93;;
30127;SDS011;16942;53.196;6.592;2023-04-06T09:07:26;16.90;;;9.20;;
30127;SDS011;16942;53.196;6.592;2023-04-06T09:09:54;15.67;;;8.57;;
30127;SDS011;16942;53.196;6.592;2023-04-06T09:12:24;14.70;;;9.03;;
30127;SDS011;16942;53.196;6.592;2023-04-06T09:14:51;13.53;;;8.93;;
30127;SDS011;16942;53.196;6.592;2023-04-06T09:17:21;13.07;;;8.27;;
30127;SDS011;16942;53.196;6.592;2023-04-06T09:19:47;12.83;;;8.30;;
30127;SDS011;16942;53.196;6.592;2023-04-06T09:22:13;11.30;;;7.73;;
30127;SDS011;16942;53.196;6.592;2023-04-06T09:24:50;13.87;;;8.70;;
30127;SDS011;16942;53.196;6.592;2023-04-06T09:27:16;13.53;;;8.27;;
30127;SDS011;16942;53.196;6.592;2023-04-06T09:29:43;14.87;;;9.57;;
30127;SDS011;16942;53.196;6.592;2023-04-06T09:32:11;14.53;;;9.37;;
30127;SDS011;16942;53.196;6.592;2023-04-06T09:34:41;16.40;;;8.50;;
30127;SDS011;16942;53.196;6.592;2023-04-06T09:37:14;13.87;;;8.63;;
30127;SDS011;16942;53.196;6.592;2023-04-06T09:39:40;12.83;;;7.57;;
30127;SDS011;16942;53.196;6.592;2023-04-06T09:42:07;13.20;;;8.60;;
30127;SDS011;16942;53.196;6.592;2023-04-06T09:44:33;18.57;;;8.10;;
30127;SDS011;16942;53.196;6.592;2023-04-06T09:46:59;13.47;;;8.87;;
30127;SDS011;16942;53.196;6.592;2023-04-06T09:49:30;13.33;;;8.40;;
30127;SDS011;16942;53.196;6.592;2023-04-06T09:52:00;13.43;;;8.70;;
30127;SDS011;16942;53.196;6.592;2023-04-06T09:54:29;13.50;;;8.77;;
30127;SDS011;16942;53.196;6.592;2023-04-06T09:59:36;15.40;;;9.20;;
30127;SDS011;16942;53.196;6.592;2023-04-06T10:02:04;13.43;;;8.47;;
30127;SDS011;16942;53.196;6.592;2023-04-06T10:04:40;13.57;;;8.67;;
30127;SDS011;16942;53.196;6.592;2023-04-06T10:07:07;16.50;;;10.03;;
30127;SDS011;16942;53.196;6.592;2023-04-06T10:09:36;16.47;;;9.10;;
30127;SDS011;16942;53.196;6.592;2023-04-06T10:12:03;17.33;;;9.47;;
30127;SDS011;16942;53.196;6.592;2023-04-06T10:14:30;14.37;;;9.00;;
30127;SDS011;16942;53.196;6.592;2023-04-06T10:16:57;16.87;;;8.90;;
30127;SDS011;16942;53.196;6.592;2023-04-06T10:19:25;16.57;;;9.97;;
30127;SDS011;16942;53.196;6.592;2023-04-06T10:21:54;17.67;;;10.87;;
30127;SDS011;16942;53.196;6.592;2023-04-06T10:24:22;14.60;;;9.57;;
30127;SDS011;16942;53.196;6.592;2023-04-06T10:27:03;17.67;;;10.70;;
30127;SDS011;16942;53.196;6.592;2023-04-06T10:29:43;16.33;;;9.80;;
30127;SDS011;16942;53.196;6.592;2023-04-06T10:32:10;18.27;;;10.07;;
30127;SDS011;16942;53.196;6.592;2023-04-06T10:34:36;19.80;;;10.87;;
30127;SDS011;16942;53.196;6.592;2023-04-06T10:37:15;18.30;;;11.13;;
30127;SDS011;16942;53.196;6.592;2023-04-06T10:40:17;20.70;;;11.50;;
30127;SDS011;16942;53.196;6.592;2023-04-06T10:42:37;20.23;;;11.57;;
30127;SDS011;16942;53.196;6.592;2023-04-06T10:45:06;19.70;;;11.10;;
30127;SDS011;16942;53.196;6.592;2023-04-06T10:47:42;17.60;;;11.03;;
30127;SDS011;16942;53.196;6.592;2023-04-06T10:50:08;18.47;;;11.47;;
30127;SDS011;16942;53.196;6.592;2023-04-06T10:52:35;22.27;;;12.70;;
30127;SDS011;16942;53.196;6.592;2023-04-06T10:55:01;23.53;;;13.57;;
30127;SDS011;16942;53.196;6.592;2023-04-06T10:57:27;19.90;;;12.40;;
30127;SDS011;16942;53.196;6.592;2023-04-06T10:59:54;19.33;;;12.07;;
30127;SDS011;16942;53.196;6.592;2023-04-06T11:02:20;18.97;;;11.40;;
30127;SDS011;16942;53.196;6.592;2023-04-06T11:04:56;20.57;;;12.33;;
30127;SDS011;16942;53.196;6.592;2023-04-06T11:07:26;16.97;;;11.33;;
30127;SDS011;16942;53.196;6.592;2023-04-06T11:09:52;26.90;;;14.93;;
30127;SDS011;16942;53.196;6.592;2023-04-06T11:12:25;27.77;;;17.70;;
30127;SDS011;16942;53.196;6.592;2023-04-06T11:17:30;29.83;;;17.57;;
30127;SDS011;16942;53.196;6.592;2023-04-06T11:19:57;31.47;;;18.17;;
30127;SDS011;16942;53.196;6.592;2023-04-06T11:22:24;35.90;;;18.97;;
30127;SDS011;16942;53.196;6.592;2023-04-06T11:24:50;28.37;;;17.67;;
30127;SDS011;16942;53.196;6.592;2023-04-06T11:27:16;36.80;;;21.00;;
30127;SDS011;16942;53.196;6.592;2023-04-06T11:29:43;34.87;;;20.63;;
30127;SDS011;16942;53.196;6.592;2023-04-06T11:32:11;36.20;;;19.97;;
30127;SDS011;16942;53.196;6.592;2023-04-06T11:34:38;37.40;;;19.50;;
30127;SDS011;16942;53.196;6.592;2023-04-06T11:37:08;38.27;;;20.07;;
30127;SDS011;16942;53.196;6.592;2023-04-06T11:39:38;30.67;;;18.37;;
30127;SDS011;16942;53.196;6.592;2023-04-06T11:42:06;32.97;;;19.10;;
30127;SDS011;16942;53.196;6.592;2023-04-06T11:44:33;28.60;;;18.23;;
30127;SDS011;16942;53.196;6.592;2023-04-06T11:47:00;32.03;;;19.73;;
30127;SDS011;16942;53.196;6.592;2023-04-06T11:49:27;32.30;;;19.03;;
30127;SDS011;16942;53.196;6.592;2023-04-06T11:51:56;34.73;;;19.63;;
30127;SDS011;16942;53.196;6.592;2023-04-06T11:54:32;38.57;;;20.97;;
30127;SDS011;16942;53.196;6.592;2023-04-06T11:56:58;37.63;;;19.70;;
30127;SDS011;16942;53.196;6.592;2023-04-06T11:59:25;34.63;;;20.50;;
30127;SDS011;16942;53.196;6.592;2023-04-06T12:01:52;34.00;;;19.80;;
30127;SDS011;16942;53.196;6.592;2023-04-06T12:04:18;34.33;;;18.97;;
30127;SDS011;16942;53.196;6.592;2023-04-06T12:06:44;34.87;;;19.70;;
30127;SDS011;16942;53.196;6.592;2023-04-06T12:09:10;33.30;;;19.63;;
30127;SDS011;16942;53.196;6.592;2023-04-06T12:11:36;33.93;;;19.27;;
30127;SDS011;16942;53.196;6.592;2023-04-06T12:14:03;31.80;;;18.93;;
30127;SDS011;16942;53.196;6.592;2023-04-06T12:16:30;32.03;;;19.30;;
30127;SDS011;16942;53.196;6.592;2023-04-06T12:18:56;32.23;;;19.70;;
30127;SDS011;16942;53.196;6.592;2023-04-06T12:21:22;34.60;;;20.33;;
30127;SDS011;16942;53.196;6.592;2023-04-06T12:23:48;32.03;;;19.10;;
30127;SDS011;16942;53.196;6.592;2023-04-06T12:26:14;46.67;;;20.57;;
30127;SDS011;16942;53.196;6.592;2023-04-06T12:28:40;34.27;;;19.07;;
30127;SDS011;16942;53.196;6.592;2023-04-06T12:31:06;32.67;;;19.80;;
30127;SDS011;16942;53.196;6.592;2023-04-06T12:33:32;31.97;;;18.57;;
30127;SDS011;16942;53.196;6.592;2023-04-06T12:35:58;29.10;;;18.37;;
30127;SDS011;16942;53.196;6.592;2023-04-06T12:38:25;32.47;;;18.23;;
30127;SDS011;16942;53.196;6.592;2023-04-06T12:40:51;33.80;;;19.23;;
30127;SDS011;16942;53.196;6.592;2023-04-06T12:43:17;34.63;;;19.67;;
30127;SDS011;16942;53.196;6.592;2023-04-06T12:45:43;32.63;;;18.93;;
30127;SDS011;16942;53.196;6.592;2023-04-06T12:48:09;30.50;;;18.53;;
30127;SDS011;16942;53.196;6.592;2023-04-06T12:50:35;33.07;;;19.13;;
30127;SDS011;16942;53.196;6.592;2023-04-06T12:53:01;34.33;;;19.07;;
30127;SDS011;16942;53.196;6.592;2023-04-06T12:55:29;33.10;;;19.53;;
30127;SDS011;16942;53.196;6.592;2023-04-06T12:57:55;35.93;;;18.97;;
30127;SDS011;16942;53.196;6.592;2023-04-06T13:00:21;32.23;;;18.97;;
30127;SDS011;16942;53.196;6.592;2023-04-06T13:02:47;32.37;;;19.13;;
30127;SDS011;16942;53.196;6.592;2023-04-06T13:05:13;30.90;;;18.03;;
30127;SDS011;16942;53.196;6.592;2023-04-06T13:07:43;31.40;;;17.73;;
30127;SDS011;16942;53.196;6.592;2023-04-06T13:10:10;35.90;;;19.03;;
30127;SDS011;16942;53.196;6.592;2023-04-06T13:12:36;31.53;;;18.60;;
30127;SDS011;16942;53.196;6.592;2023-04-06T13:15:02;38.80;;;19.87;;
30127;SDS011;16942;53.196;6.592;2023-04-06T13:17:29;36.30;;;19.43;;
30127;SDS011;16942;53.196;6.592;2023-04-06T13:19:55;34.60;;;18.07;;
30127;SDS011;16942;53.196;6.592;2023-04-06T13:22:21;31.53;;;19.03;;
30127;SDS011;16942;53.196;6.592;2023-04-06T13:24:47;34.73;;;19.87;;
30127;SDS011;16942;53.196;6.592;2023-04-06T13:27:13;28.60;;;18.00;;
30127;SDS011;16942;53.196;6.592;2023-04-06T13:29:40;35.20;;;19.00;;
30127;SDS011;16942;53.196;6.592;2023-04-06T13:32:06;35.97;;;18.77;;
30127;SDS011;16942;53.196;6.592;2023-04-06T13:34:34;30.87;;;18.30;;
30127;SDS011;16942;53.196;6.592;2023-04-06T13:37:00;31.83;;;18.33;;
30127;SDS011;16942;53.196;6.592;2023-04-06T13:39:26;29.30;;;18.63;;
30127;SDS011;16942;53.196;6.592;2023-04-06T13:41:55;32.63;;;18.27;;
30127;SDS011;16942;53.196;6.592;2023-04-06T13:44:22;30.07;;;16.80;;
30127;SDS011;16942;53.196;6.592;2023-04-06T13:46:48;32.20;;;18.63;;
30127;SDS011;16942;53.196;6.592;2023-04-06T13:49:14;36.17;;;19.43;;
30127;SDS011;16942;53.196;6.592;2023-04-06T13:51:41;33.77;;;18.67;;
30127;SDS011;16942;53.196;6.592;2023-04-06T13:54:07;32.57;;;19.00;;
30127;SDS011;16942;53.196;6.592;2023-04-06T13:56:33;31.13;;;17.87;;
30127;SDS011;16942;53.196;6.592;2023-04-06T13:58:59;27.83;;;17.57;;
30127;SDS011;16942;53.196;6.592;2023-04-06T14:01:25;25.87;;;15.60;;
30127;SDS011;16942;53.196;6.592;2023-04-06T14:03:51;28.23;;;16.00;;
30127;SDS011;16942;53.196;6.592;2023-04-06T14:06:18;30.87;;;16.30;;
30127;SDS011;16942;53.196;6.592;2023-04-06T14:08:44;25.63;;;15.03;;
30127;SDS011;16942;53.196;6.592;2023-04-06T14:11:14;26.50;;;15.50;;
30127;SDS011;16942;53.196;6.592;2023-04-06T14:13:41;25.47;;;14.47;;
30127;SDS011;16942;53.196;6.592;2023-04-06T14:16:07;22.70;;;13.23;;
30127;SDS011;16942;53.196;6.592;2023-04-06T14:18:33;20.73;;;13.23;;
30127;SDS011;16942;53.196;6.592;2023-04-06T14:21:00;24.33;;;13.43;;
30127;SDS011;16942;53.196;6.592;2023-04-06T14:23:27;26.13;;;14.27;;
30127;SDS011;16942;53.196;6.592;2023-04-06T14:26:03;24.07;;;12.73;;
30127;SDS011;16942;53.196;6.592;2023-04-06T14:28:30;24.87;;;13.60;;
30127;SDS011;16942;53.196;6.592;2023-04-06T14:30:57;21.57;;;13.10;;
30127;SDS011;16942;53.196;6.592;2023-04-06T14:33:25;28.10;;;14.17;;